createdAt,value
2019-02-19T00:01:54.508Z,101275.84
2019-02-19T00:04:24.785Z,101271.72
2019-02-19T00:06:55.429Z,101274.97
2019-02-19T00:09:25.678Z,101271.36
2019-02-19T00:11:56.017Z,101273.73
2019-02-19T00:14:26.398Z,101275.32
2019-02-19T00:16:56.733Z,101272.86
2019-02-19T00:19:27.110Z,101272.45
2019-02-19T00:21:59.094Z,101274.53
2019-02-19T00:24:29.413Z,101284.42
2019-02-19T00:26:59.851Z,101277.42
2019-02-19T00:29:30.208Z,101277.42
2019-02-19T00:32:03.927Z,101284.30
2019-02-19T00:34:34.588Z,101282.39
2019-02-19T00:37:06.696Z,101285.90
2019-02-19T00:39:37.057Z,101288.95
2019-02-19T00:42:08.906Z,101294.34
2019-02-19T00:44:39.202Z,101293.23
2019-02-19T00:47:09.671Z,101288.69
2019-02-19T00:49:41.438Z,101293.99
2019-02-19T00:52:14.193Z,101296.20
2019-02-19T00:54:44.843Z,101299.87
2019-02-19T00:57:15.167Z,101301.80
2019-02-19T00:59:45.684Z,101300.69
2019-02-19T01:02:19.201Z,101299.59
2019-02-19T01:04:53.673Z,101297.83
2019-02-19T01:07:24.008Z,101302.47
2019-02-19T01:09:54.479Z,101295.55
2019-02-19T01:12:24.770Z,101299.76
2019-02-19T01:14:55.045Z,101297.21
2019-02-19T01:17:25.356Z,101298.81
2019-02-19T01:19:55.667Z,101306.06
2019-02-19T01:22:25.981Z,101303.12
2019-02-19T01:24:56.307Z,101304.84
2019-02-19T01:27:26.613Z,101310.36
2019-02-19T01:29:57.281Z,101311.06
2019-02-19T01:32:27.584Z,101310.42
2019-02-19T01:35:00.258Z,101308.16
2019-02-19T01:37:30.515Z,101312.41
2019-02-19T01:40:02.178Z,101321.36
2019-02-19T01:42:32.592Z,101316.51
2019-02-19T01:45:03.216Z,101316.73
2019-02-19T01:47:33.883Z,101314.83
2019-02-19T01:50:04.708Z,101322.25
2019-02-19T01:52:35.052Z,101314.97
2019-02-19T01:55:06.095Z,101316.39
2019-02-19T01:57:36.677Z,101315.30
2019-02-19T02:00:07.909Z,101313.53
2019-02-19T02:02:38.540Z,101314.41
2019-02-19T02:05:09.128Z,101316.09
2019-02-19T02:07:39.537Z,101314.81
2019-02-19T02:10:09.861Z,101315.77
2019-02-19T02:12:40.756Z,101321.11
2019-02-19T02:15:11.151Z,101329.91
2019-02-19T02:17:41.785Z,101333.34
2019-02-19T02:20:12.057Z,101335.61
2019-02-19T02:22:44.479Z,101333.20
2019-02-19T02:25:15.370Z,101326.17
2019-02-19T02:27:47.393Z,101329.21
2019-02-19T02:30:17.701Z,101333.98
2019-02-19T02:32:48.383Z,101325.78
2019-02-19T02:35:18.702Z,101326.66
2019-02-19T02:37:51.380Z,101325.30
2019-02-19T02:40:21.779Z,101328.24
2019-02-19T02:42:52.860Z,101327.79
2019-02-19T02:45:23.723Z,101328.33
2019-02-19T02:47:54.032Z,101331.28
2019-02-19T02:50:24.581Z,101329.91
2019-02-19T02:52:54.941Z,101328.24
2019-02-19T02:55:25.341Z,101329.91
2019-02-19T02:57:55.651Z,101338.31
2019-02-19T03:00:27.160Z,101339.92
2019-02-19T03:02:57.696Z,101333.73
2019-02-19T03:05:28.318Z,101341.58
2019-02-19T03:08:02.837Z,101340.47
2019-02-19T03:10:33.152Z,101343.20
2019-02-19T03:13:03.425Z,101338.63
2019-02-19T03:15:33.732Z,101342.94
2019-02-19T03:18:04.321Z,101340.17
2019-02-19T03:20:34.631Z,101336.10
2019-02-19T03:23:05.018Z,101334.22
2019-02-19T03:25:35.607Z,101340.29
2019-02-19T03:28:05.862Z,101337.59
2019-02-19T03:30:37.110Z,101343.81
2019-02-19T03:33:07.714Z,101341.44
2019-02-19T03:35:39.893Z,101350.45
2019-02-19T03:38:10.254Z,101351.64
2019-02-19T03:40:40.554Z,101363.56
2019-02-19T03:43:10.835Z,101366.97
2019-02-19T03:45:41.141Z,101362.04
2019-02-19T03:48:11.533Z,101361.72
2019-02-19T03:50:41.812Z,101352.24
2019-02-19T03:53:12.166Z,101364.44
2019-02-19T03:55:42.557Z,101359.73
2019-02-19T03:58:14.200Z,101371.30
2019-02-19T04:00:44.847Z,101373.35
2019-02-19T04:03:15.162Z,101364.44
2019-02-19T04:05:45.838Z,101370.80
2019-02-19T04:08:17.278Z,101365.22
2019-02-19T04:10:47.769Z,101358.84
2019-02-19T04:13:19.695Z,101361.33
2019-02-19T04:15:49.999Z,101363.55
2019-02-19T04:18:21.909Z,101366.98
2019-02-19T04:20:52.212Z,101363.94
2019-02-19T04:23:23.842Z,101377.57
2019-02-19T04:25:54.329Z,101383.39
2019-02-19T04:28:24.655Z,101383.45
2019-02-19T04:30:55.000Z,101378.61
2019-02-19T04:33:25.296Z,101377.41
2019-02-19T04:35:55.916Z,101377.95
2019-02-19T04:38:26.214Z,101381.78
2019-02-19T04:40:56.845Z,101381.33
2019-02-19T04:43:27.122Z,101375.11
2019-02-19T04:45:57.738Z,101390.41
2019-02-19T04:48:28.060Z,101388.58
2019-02-19T04:50:58.754Z,101397.95
2019-02-19T04:53:29.238Z,101397.17
2019-02-19T04:55:59.732Z,101392.14
2019-02-19T04:58:30.032Z,101395.56
2019-02-19T05:01:00.361Z,101384.97
2019-02-19T05:03:30.926Z,101396.05
2019-02-19T05:06:02.536Z,101390.40
2019-02-19T05:08:32.855Z,101397.55
2019-02-19T05:11:03.224Z,101397.55
2019-02-19T05:13:33.774Z,101406.80
2019-02-19T05:16:04.147Z,101398.20
2019-02-19T05:18:34.736Z,101416.67
2019-02-19T05:21:06.237Z,101407.91
2019-02-19T05:23:39.181Z,101404.18
2019-02-19T05:26:11.806Z,101402.41
2019-02-19T05:28:42.773Z,101412.39
2019-02-19T05:31:13.155Z,101407.75
2019-02-19T05:33:44.010Z,101408.41
2019-02-19T05:36:14.596Z,101412.70
2019-02-19T05:38:45.249Z,101409.13
2019-02-19T05:41:15.655Z,101409.98
2019-02-19T05:43:47.579Z,101411.03
2019-02-19T05:46:18.061Z,101408.08
2019-02-19T05:48:48.548Z,101408.70
2019-02-19T05:51:18.840Z,101408.58
2019-02-19T05:53:49.282Z,101400.44
2019-02-19T05:56:19.772Z,101397.80
2019-02-19T05:58:51.301Z,101395.67
2019-02-19T06:01:21.693Z,101403.94
2019-02-19T06:03:52.060Z,101410.80
2019-02-19T06:06:22.648Z,101415.91
2019-02-19T06:08:52.978Z,101425.12
2019-02-19T06:11:23.316Z,101425.94
2019-02-19T06:13:53.604Z,101421.55
2019-02-19T06:16:24.616Z,101423.28
2019-02-19T06:18:54.951Z,101422.73
2019-02-19T06:21:25.823Z,101431.32
2019-02-19T06:23:56.126Z,101431.32
2019-02-19T06:26:26.702Z,101433.48
2019-02-19T06:28:57.885Z,101441.52
2019-02-19T06:31:28.722Z,101441.62
2019-02-19T06:33:59.131Z,101450.44
2019-02-19T06:36:30.050Z,101453.09
2019-02-19T06:39:00.389Z,101459.23
2019-02-19T06:41:32.620Z,101458.42
2019-02-19T06:44:02.960Z,101463.78
2019-02-19T06:46:35.180Z,101461.13
2019-02-19T06:49:05.624Z,101466.39
2019-02-19T06:51:37.317Z,101472.94
2019-02-19T06:54:07.908Z,101474.99
2019-02-19T06:56:39.058Z,101478.42
2019-02-19T06:59:09.752Z,101482.73
2019-02-19T07:02:19.762Z,101494.94
2019-02-19T07:04:56.617Z,101497.66
2019-02-19T07:07:27.082Z,101504.66
2019-02-19T07:09:58.723Z,101511.35
2019-02-19T07:12:29.049Z,101504.98
2019-02-19T07:14:59.668Z,101516.06
2019-02-19T07:17:29.985Z,101510.47
2019-02-19T07:20:00.718Z,101518.05
2019-02-19T07:22:31.305Z,101522.34
2019-02-19T07:25:01.594Z,101531.42
2019-02-19T07:27:32.100Z,101534.96
2019-02-19T07:30:02.686Z,101534.30
2019-02-19T07:32:33.125Z,101539.33
2019-02-19T07:35:03.629Z,101545.28
2019-02-19T07:37:33.974Z,101547.44
2019-02-19T07:40:04.386Z,101551.05
2019-02-19T07:42:35.073Z,101554.88
2019-02-19T07:45:05.859Z,101562.31
2019-02-19T07:47:36.252Z,101557.99
2019-02-19T07:50:07.393Z,101557.27
2019-02-19T07:52:39.015Z,101556.92
2019-02-19T07:55:09.826Z,101559.78
2019-02-19T07:57:42.897Z,101560.65
2019-02-19T08:00:13.569Z,101568.95
2019-02-19T08:02:44.135Z,101577.78
2019-02-19T08:05:14.448Z,101578.59
2019-02-19T08:07:45.180Z,101584.80
2019-02-19T08:10:15.860Z,101587.77
2019-02-19T08:12:47.971Z,101591.97
2019-02-19T08:15:18.286Z,101591.97
2019-02-19T08:17:49.293Z,101595.19
2019-02-19T08:20:19.595Z,101602.61
2019-02-19T08:22:52.765Z,101597.45
2019-02-19T08:25:24.449Z,101595.60
2019-02-19T08:27:55.105Z,101599.28
2019-02-19T08:30:25.689Z,101597.69
2019-02-19T08:32:55.971Z,101599.87
2019-02-19T08:35:26.663Z,101596.63
2019-02-19T08:37:56.976Z,101590.41
2019-02-19T08:40:27.301Z,101590.44
2019-02-19T08:42:57.607Z,101579.50
2019-02-19T08:45:30.156Z,101573.59
2019-02-19T08:48:00.525Z,101573.59
2019-02-19T08:50:31.802Z,101575.47
2019-02-19T08:53:02.194Z,101576.30
2019-02-19T08:55:34.819Z,101577.66
2019-02-19T08:58:05.200Z,101580.71
2019-02-19T09:00:36.077Z,101565.67
2019-02-19T09:03:06.376Z,101559.33
2019-02-19T09:05:36.863Z,101564.67
2019-02-19T09:08:07.377Z,101574.12
2019-02-19T09:10:39.896Z,101584.98
2019-02-19T09:13:10.619Z,101586.21
2019-02-19T09:15:41.133Z,101578.02
2019-02-19T09:18:11.689Z,101578.02
2019-02-19T09:20:42.160Z,101578.97
2019-02-19T09:23:12.791Z,101583.50
2019-02-19T09:25:44.648Z,101581.12
2019-02-19T09:28:15.020Z,101592.94
2019-02-19T09:30:45.374Z,101576.99
2019-02-19T09:33:16.065Z,101580.24
2019-02-19T09:35:46.460Z,101583.71
2019-02-19T09:38:16.855Z,101577.78
2019-02-19T09:40:47.190Z,101577.78
2019-02-19T09:43:17.971Z,101574.42
2019-02-19T09:45:48.700Z,101586.32
2019-02-19T09:48:19.035Z,101567.00
2019-02-19T09:50:49.504Z,101564.50
2019-02-19T09:53:20.144Z,101578.78
2019-02-19T09:55:50.496Z,101578.78
2019-02-19T09:58:21.096Z,101581.20
2019-02-19T10:00:51.551Z,101579.54
2019-02-19T10:03:22.368Z,101574.45
2019-02-19T10:05:52.821Z,101571.95
2019-02-19T10:08:26.216Z,101571.10
2019-02-19T10:10:56.885Z,101586.87
2019-02-19T10:13:27.247Z,101580.19
2019-02-19T10:15:57.614Z,101568.78
2019-02-19T10:18:28.114Z,101553.67
2019-02-19T10:20:59.724Z,101562.13
2019-02-19T10:23:30.441Z,101558.70
2019-02-19T10:26:01.026Z,101571.91
2019-02-19T10:28:31.662Z,101573.69
2019-02-19T10:31:02.173Z,101574.27
2019-02-19T10:33:32.528Z,101565.58
2019-02-19T10:36:03.201Z,101571.09
2019-02-19T10:38:33.569Z,101584.02
2019-02-19T10:41:04.188Z,101601.09
2019-02-19T10:43:36.818Z,101618.15
2019-02-19T10:46:07.427Z,101619.84
2019-02-19T10:48:37.860Z,101613.27
2019-02-19T10:51:08.475Z,101617.61
2019-02-19T10:53:39.132Z,101621.09
2019-02-19T10:56:09.952Z,101618.84
2019-02-19T10:58:40.305Z,101621.58
2019-02-19T11:01:11.696Z,101623.66
2019-02-19T11:03:42.034Z,101625.10
2019-02-19T11:06:12.948Z,101628.19
2019-02-19T11:08:43.684Z,101629.53
2019-02-19T11:11:14.085Z,101624.80
2019-02-19T11:13:47.592Z,101631.85
2019-02-19T11:16:18.120Z,101631.85
2019-02-19T11:18:48.827Z,101625.91
2019-02-19T11:21:20.211Z,101623.27
2019-02-19T11:23:51.068Z,101624.44
2019-02-19T11:26:21.379Z,101628.09
2019-02-19T11:28:51.946Z,101626.23
2019-02-19T11:31:22.508Z,101621.64
2019-02-19T11:33:53.152Z,101621.27
2019-02-19T11:36:23.497Z,101623.57
2019-02-19T11:38:55.256Z,101620.42
2019-02-19T11:41:25.575Z,101619.58
2019-02-19T11:43:56.150Z,101622.91
2019-02-19T11:46:26.791Z,101628.55
2019-02-19T11:48:58.887Z,101629.20
2019-02-19T11:51:29.211Z,101622.52
2019-02-19T11:53:59.610Z,101622.74
2019-02-19T11:56:30.219Z,101618.66
2019-02-19T11:59:01.768Z,101621.67
2019-02-19T12:01:32.304Z,101628.16
2019-02-19T12:04:03.049Z,101623.06
2019-02-19T12:06:33.929Z,101617.65
2019-02-19T12:09:05.424Z,101607.20
2019-02-19T12:11:35.686Z,101609.00
2019-02-19T12:14:06.189Z,101607.52
2019-02-19T12:16:36.473Z,101611.03
2019-02-19T12:19:06.958Z,101617.15
2019-02-19T12:21:37.251Z,101612.70
2019-02-19T12:24:07.592Z,101607.09
2019-02-19T12:26:37.946Z,101600.88
2019-02-19T12:29:10.724Z,101601.42
2019-02-19T12:31:41.129Z,101610.00
2019-02-19T12:34:11.610Z,101604.47
2019-02-19T12:36:42.496Z,101607.52
2019-02-19T12:39:12.901Z,101600.23
2019-02-19T12:41:43.203Z,101610.80
2019-02-19T12:44:13.784Z,101603.75
2019-02-19T12:46:44.161Z,101607.72
2019-02-19T12:49:16.523Z,101597.94
2019-02-19T12:51:47.150Z,101597.94
2019-02-19T12:54:17.647Z,101593.81
2019-02-19T12:56:48.745Z,101590.73
2019-02-19T12:59:19.353Z,101591.14
2019-02-19T13:01:49.912Z,101589.63
2019-02-19T13:04:20.237Z,101583.91
2019-02-19T13:06:50.756Z,101588.45
2019-02-19T13:09:21.092Z,101598.75
2019-02-19T13:11:51.706Z,101596.27
2019-02-19T13:14:22.338Z,101596.16
2019-02-19T13:16:52.724Z,101602.13
2019-02-19T13:19:23.295Z,101601.97
2019-02-19T13:21:55.066Z,101606.98
2019-02-19T13:24:26.408Z,101608.54
2019-02-19T13:26:56.975Z,101604.27
2019-02-19T13:29:27.307Z,101612.47
2019-02-19T13:31:58.286Z,101604.52
2019-02-19T13:34:30.687Z,101612.50
2019-02-19T13:37:01.049Z,101611.17
2019-02-19T13:39:32.995Z,101619.98
2019-02-19T13:42:03.351Z,101617.59
2019-02-19T13:44:33.686Z,101617.87
2019-02-19T13:47:05.838Z,101600.92
2019-02-19T13:49:39.066Z,101611.38
2019-02-19T13:52:32.735Z,101609.48
2019-02-19T13:55:07.743Z,101604.38
2019-02-19T13:57:38.406Z,101622.54
2019-02-19T14:00:10.937Z,101620.08
2019-02-19T14:02:42.985Z,101614.11
2019-02-19T14:05:13.302Z,101618.58
2019-02-19T14:07:45.228Z,101619.59
2019-02-19T14:10:15.860Z,101614.50
2019-02-19T14:12:46.404Z,101614.50
2019-02-19T14:15:43.499Z,101617.19
2019-02-19T14:18:16.163Z,101617.03
2019-02-19T14:21:08.331Z,101623.52
2019-02-19T14:23:59.865Z,101618.00
2019-02-19T14:27:01.346Z,101621.05
2019-02-19T14:29:49.603Z,101616.66
2019-02-19T14:32:32.557Z,101624.08
2019-02-19T14:35:37.251Z,101621.86
2019-02-19T14:38:28.488Z,101619.08
2019-02-19T14:41:25.536Z,101618.78
2019-02-19T14:44:14.793Z,101617.61
2019-02-19T14:47:02.820Z,101626.13
2019-02-19T14:50:10.973Z,101619.75
2019-02-19T14:53:00.435Z,101616.39
2019-02-19T14:55:59.029Z,101617.37
2019-02-19T14:59:06.775Z,101625.09
2019-02-19T15:02:01.308Z,101634.89
2019-02-19T15:04:54.082Z,101626.14
2019-02-19T15:07:43.341Z,101629.39
2019-02-19T15:10:28.875Z,101634.94
2019-02-19T15:13:15.215Z,101626.23
2019-02-19T15:15:57.145Z,101628.39
2019-02-19T15:18:49.312Z,101630.72
2019-02-19T15:21:37.256Z,101628.70
2019-02-19T15:24:32.778Z,101630.44
2019-02-19T15:27:12.896Z,101638.19
2019-02-19T15:30:01.039Z,101622.58
2019-02-19T15:32:42.207Z,101626.48
2019-02-19T15:35:25.038Z,101629.22
2019-02-19T15:38:03.893Z,101627.52
2019-02-19T15:41:11.506Z,101627.08
2019-02-19T15:43:50.097Z,101636.66
2019-02-19T15:46:39.435Z,101638.62
2019-02-19T15:49:48.091Z,101642.21
2019-02-19T15:52:33.531Z,101634.59
2019-02-19T15:55:23.046Z,101640.55
2019-02-19T15:58:11.502Z,101640.23
2019-02-19T16:00:46.979Z,101641.80
2019-02-19T16:03:34.654Z,101648.77
2019-02-19T16:06:26.750Z,101648.77
2019-02-19T16:09:15.292Z,101652.69
2019-02-19T16:12:04.833Z,101654.94
2019-02-19T16:15:09.635Z,101656.95
2019-02-19T16:18:05.568Z,101651.68
2019-02-19T16:20:46.045Z,101667.88
2019-02-19T16:23:38.219Z,101661.13
2019-02-19T16:26:27.815Z,101658.77
2019-02-19T16:29:15.971Z,101662.91
2019-02-19T16:32:15.819Z,101662.91
2019-02-19T16:35:08.318Z,101660.21
2019-02-19T16:37:46.423Z,101664.89
2019-02-19T16:40:35.464Z,101662.39
2019-02-19T16:43:34.143Z,101660.06
2019-02-19T16:46:30.909Z,101663.22
2019-02-19T16:49:29.550Z,101665.33
2019-02-19T16:52:24.947Z,101667.17
2019-02-19T16:55:29.908Z,101669.70
2019-02-19T16:58:21.067Z,101674.59
2019-02-19T17:01:00.172Z,101673.33
2019-02-19T17:03:48.925Z,101677.50
2019-02-19T17:06:40.573Z,101683.55
2019-02-19T17:09:30.615Z,101682.35
2019-02-19T17:12:29.367Z,101688.90
2019-02-19T17:15:15.699Z,101689.91
2019-02-19T17:18:14.767Z,101690.05
2019-02-19T17:21:02.832Z,101691.84
2019-02-19T17:23:43.740Z,101697.31
2019-02-19T17:26:18.643Z,101696.84
2019-02-19T17:28:57.017Z,101699.44
2019-02-19T17:31:36.770Z,101708.92
2019-02-19T17:34:30.202Z,101712.52
2019-02-19T17:37:19.513Z,101710.36
2019-02-19T17:39:59.223Z,101710.36
2019-02-19T17:43:06.770Z,101711.87
2019-02-19T17:45:59.080Z,101708.30
2019-02-19T17:48:48.735Z,101721.80
2019-02-19T17:51:41.356Z,101721.69
2019-02-19T17:54:27.940Z,101720.57
2019-02-19T17:57:17.482Z,101722.62
2019-02-19T18:00:05.841Z,101725.19
2019-02-19T18:02:48.442Z,101735.39
2019-02-19T18:05:49.762Z,101740.93
2019-02-19T18:08:42.437Z,101743.59
2019-02-19T18:11:34.008Z,101744.45
2019-02-19T18:14:20.939Z,101753.39
2019-02-19T18:17:07.079Z,101754.16
2019-02-19T18:19:37.885Z,101753.24
2019-02-19T18:22:08.279Z,101753.24
2019-02-19T18:24:39.019Z,101763.98
2019-02-19T18:27:09.491Z,101762.92
2019-02-19T18:29:40.174Z,101763.38
2019-02-19T18:32:10.750Z,101759.63
2019-02-19T18:34:41.134Z,101760.83
2019-02-19T18:37:11.722Z,101764.16
2019-02-19T18:39:42.409Z,101764.16
2019-02-19T18:42:14.160Z,101763.48
2019-02-19T18:44:48.971Z,101775.31
2019-02-19T18:47:19.378Z,101772.13
2019-02-19T18:49:51.427Z,101774.03
2019-02-19T18:52:22.076Z,101770.50
2019-02-19T18:54:54.047Z,101770.89
2019-02-19T18:57:26.133Z,101768.73
2019-02-19T18:59:56.994Z,101767.52
2019-02-19T19:02:27.425Z,101765.47
2019-02-19T19:04:57.931Z,101771.02
2019-02-19T19:07:28.343Z,101771.23
2019-02-19T19:09:59.022Z,101774.25
2019-02-19T19:12:29.422Z,101773.39
2019-02-19T19:14:59.992Z,101775.17
2019-02-19T19:17:30.497Z,101773.13
2019-02-19T19:20:01.224Z,101774.53
2019-02-19T19:22:31.973Z,101779.11
2019-02-19T19:25:02.664Z,101777.02
2019-02-19T19:27:33.434Z,101784.28
2019-02-19T19:30:03.873Z,101777.33
2019-02-19T19:32:34.680Z,101775.56
2019-02-19T19:35:05.319Z,101777.83
2019-02-19T19:37:37.633Z,101778.75
2019-02-19T19:40:09.131Z,101779.07
2019-02-19T19:42:39.772Z,101782.22
2019-02-19T19:45:10.524Z,101783.92
2019-02-19T19:47:41.242Z,101787.42
2019-02-19T19:50:11.733Z,101790.08
2019-02-19T19:52:42.143Z,101788.02
2019-02-19T19:55:12.677Z,101782.78
2019-02-19T19:57:45.119Z,101789.27
2019-02-19T20:00:15.603Z,101792.70
2019-02-19T20:02:46.288Z,101790.30
2019-02-19T20:05:16.618Z,101783.89
2019-02-19T20:07:47.041Z,101797.67
2019-02-19T20:10:17.741Z,101791.32
2019-02-19T20:12:48.205Z,101791.32
2019-02-19T20:15:28.308Z,101796.17
2019-02-19T20:17:59.349Z,101787.52
2019-02-19T20:20:31.897Z,101794.42
2019-02-19T20:23:04.351Z,101793.98
2019-02-19T20:25:34.732Z,101793.23
2019-02-19T20:28:05.095Z,101789.92
2019-02-19T20:30:35.658Z,101789.92
2019-02-19T20:33:06.349Z,101795.39
2019-02-19T20:35:36.688Z,101798.07
2019-02-19T20:38:06.998Z,101801.21
2019-02-19T20:40:37.671Z,101800.44
2019-02-19T20:43:08.123Z,101803.20
2019-02-19T20:45:38.886Z,101803.20
2019-02-19T20:48:09.293Z,101804.17
2019-02-19T20:50:40.375Z,101805.57
2019-02-19T20:53:10.975Z,101810.11
2019-02-19T20:55:43.508Z,101812.50
2019-02-19T20:58:13.917Z,101808.18
2019-02-19T21:00:45.985Z,101812.13
2019-02-19T21:03:16.386Z,101815.71
2019-02-19T21:05:48.932Z,101816.66
2019-02-19T21:08:19.425Z,101817.55
2019-02-19T21:10:50.995Z,101820.72
2019-02-19T21:13:21.601Z,101818.83
2019-02-19T21:15:54.430Z,101820.48
2019-02-19T21:18:24.876Z,101823.22
2019-02-19T21:20:56.601Z,101821.56
2019-02-19T21:23:27.194Z,101824.41
2019-02-19T21:25:57.867Z,101826.77
2019-02-19T21:28:28.616Z,101818.31
2019-02-19T21:31:00.877Z,101818.31
2019-02-19T21:33:31.291Z,101826.02
2019-02-19T21:36:01.754Z,101826.39
2019-02-19T21:38:32.561Z,101827.77
2019-02-19T21:41:02.994Z,101825.58
2019-02-19T21:43:33.691Z,101829.78
2019-02-19T21:46:04.046Z,101827.88
2019-02-19T21:48:35.023Z,101821.04
2019-02-19T21:51:05.613Z,101818.09
2019-02-19T21:53:36.366Z,101825.48
2019-02-19T21:56:06.713Z,101825.48
2019-02-19T22:01:13.681Z,101831.13
2019-02-19T22:03:44.029Z,101823.34
2019-02-19T22:06:14.415Z,101822.33
2019-02-19T22:08:45.353Z,101821.72
2019-02-19T22:11:16.257Z,101831.78
2019-02-19T22:13:48.775Z,101824.62
2019-02-19T22:16:27.422Z,101829.85
2019-02-19T22:19:00.327Z,101831.00
2019-02-19T22:21:47.377Z,101831.94
2019-02-19T22:24:54.750Z,101837.02
2019-02-19T22:27:26.055Z,101831.42
2019-02-19T22:29:56.557Z,101832.22
2019-02-19T22:32:27.537Z,101837.39
2019-02-19T22:34:59.762Z,101841.08
2019-02-19T22:37:30.167Z,101839.93
2019-02-19T22:40:00.645Z,101834.69
2019-02-19T22:42:32.789Z,101840.11
2019-02-19T22:45:03.481Z,101836.46
2019-02-19T22:47:34.167Z,101838.06
2019-02-19T22:50:08.295Z,101835.69
2019-02-19T22:52:38.918Z,101835.69
2019-02-19T22:55:21.663Z,101842.38
2019-02-19T22:57:52.298Z,101841.83
2019-02-19T23:00:44.365Z,101843.87
2019-02-19T23:03:17.758Z,101840.34
2019-02-19T23:05:48.254Z,101849.11
2019-02-19T23:08:18.662Z,101846.33
2019-02-19T23:10:49.431Z,101848.73
2019-02-19T23:13:21.386Z,101848.73
2019-02-19T23:15:52.350Z,101858.38
2019-02-19T23:18:22.808Z,101854.58
2019-02-19T23:21:02.342Z,101861.29
2019-02-19T23:23:34.297Z,101859.42
2019-02-19T23:26:04.701Z,101857.19
2019-02-19T23:28:35.238Z,101865.70
2019-02-19T23:31:07.539Z,101866.30
2019-02-19T23:33:39.806Z,101867.02
2019-02-19T23:36:38.664Z,101871.73
2019-02-19T23:39:12.136Z,101867.75
2019-02-19T23:41:42.978Z,101868.30
2019-02-19T23:44:18.659Z,101867.41
2019-02-19T23:46:51.451Z,101864.47
2019-02-19T23:49:22.307Z,101861.14
2019-02-19T23:52:01.358Z,101864.05
2019-02-19T23:54:34.203Z,101856.55
2019-02-19T23:57:04.578Z,101865.86
2019-02-19T23:59:37.917Z,101861.33
